sensor_id;sensor_type;location;lat;lon;timestamp;P1;durP1;ratioP1;P2;durP2;ratioP2
21235;SDS011;10775;42.678;26.324;2022-11-14T00:00:00;7.55;;;4.15;;
21235;SDS011;10775;42.678;26.324;2022-11-14T00:02:26;7.07;;;4.32;;
21235;SDS011;10775;42.678;26.324;2022-11-14T00:04:52;6.47;;;3.97;;
21235;SDS011;10775;42.678;26.324;2022-11-14T00:07:17;7.78;;;4.53;;
21235;SDS011;10775;42.678;26.324;2022-11-14T00:09:43;10.18;;;4.97;;
21235;SDS011;10775;42.678;26.324;2022-11-14T00:12:09;7.18;;;4.55;;
21235;SDS011;10775;42.678;26.324;2022-11-14T00:14:35;7.10;;;4.22;;
21235;SDS011;10775;42.678;26.324;2022-11-14T00:17:01;6.28;;;4.25;;
21235;SDS011;10775;42.678;26.324;2022-11-14T00:19:28;7.10;;;4.35;;
21235;SDS011;10775;42.678;26.324;2022-11-14T00:21:54;7.32;;;4.95;;
21235;SDS011;10775;42.678;26.324;2022-11-14T00:24:20;7.63;;;4.40;;
21235;SDS011;10775;42.678;26.324;2022-11-14T00:26:45;9.63;;;4.70;;
21235;SDS011;10775;42.678;26.324;2022-11-14T00:29:12;7.18;;;4.05;;
21235;SDS011;10775;42.678;26.324;2022-11-14T00:31:38;4.75;;;3.78;;
21235;SDS011;10775;42.678;26.324;2022-11-14T00:34:04;8.05;;;4.22;;
21235;SDS011;10775;42.678;26.324;2022-11-14T00:36:30;6.57;;;3.85;;
21235;SDS011;10775;42.678;26.324;2022-11-14T00:38:56;6.82;;;4.47;;
21235;SDS011;10775;42.678;26.324;2022-11-14T00:41:21;6.68;;;4.05;;
21235;SDS011;10775;42.678;26.324;2022-11-14T00:43:48;6.22;;;3.60;;
21235;SDS011;10775;42.678;26.324;2022-11-14T00:46:13;6.28;;;3.80;;
21235;SDS011;10775;42.678;26.324;2022-11-14T00:48:39;7.10;;;4.03;;
21235;SDS011;10775;42.678;26.324;2022-11-14T00:51:04;5.60;;;3.67;;
21235;SDS011;10775;42.678;26.324;2022-11-14T00:53:30;6.28;;;4.10;;
21235;SDS011;10775;42.678;26.324;2022-11-14T00:55:56;7.35;;;4.32;;
21235;SDS011;10775;42.678;26.324;2022-11-14T00:58:22;5.80;;;3.88;;
21235;SDS011;10775;42.678;26.324;2022-11-14T01:00:50;5.93;;;3.78;;
21235;SDS011;10775;42.678;26.324;2022-11-14T01:03:16;6.68;;;3.80;;
21235;SDS011;10775;42.678;26.324;2022-11-14T01:05:43;8.65;;;4.30;;
21235;SDS011;10775;42.678;26.324;2022-11-14T01:08:10;6.75;;;4.18;;
21235;SDS011;10775;42.678;26.324;2022-11-14T01:10:43;7.38;;;4.20;;
21235;SDS011;10775;42.678;26.324;2022-11-14T01:13:11;7.53;;;4.25;;
21235;SDS011;10775;42.678;26.324;2022-11-14T01:15:38;5.97;;;3.78;;
21235;SDS011;10775;42.678;26.324;2022-11-14T01:18:13;7.22;;;4.10;;
21235;SDS011;10775;42.678;26.324;2022-11-14T01:20:42;6.72;;;4.10;;
21235;SDS011;10775;42.678;26.324;2022-11-14T01:23:09;6.45;;;3.75;;
21235;SDS011;10775;42.678;26.324;2022-11-14T01:25:36;7.00;;;3.90;;
21235;SDS011;10775;42.678;26.324;2022-11-14T01:28:06;6.22;;;4.28;;
21235;SDS011;10775;42.678;26.324;2022-11-14T01:30:33;7.00;;;4.60;;
21235;SDS011;10775;42.678;26.324;2022-11-14T01:32:59;7.53;;;4.32;;
21235;SDS011;10775;42.678;26.324;2022-11-14T01:35:24;6.70;;;4.10;;
21235;SDS011;10775;42.678;26.324;2022-11-14T01:37:50;6.93;;;4.30;;
21235;SDS011;10775;42.678;26.324;2022-11-14T01:40:15;6.25;;;3.75;;
21235;SDS011;10775;42.678;26.324;2022-11-14T01:42:41;5.70;;;3.53;;
21235;SDS011;10775;42.678;26.324;2022-11-14T01:48:09;6.75;;;3.72;;
21235;SDS011;10775;42.678;26.324;2022-11-14T01:51:00;5.95;;;3.85;;
21235;SDS011;10775;42.678;26.324;2022-11-14T01:53:29;6.30;;;3.92;;
21235;SDS011;10775;42.678;26.324;2022-11-14T01:55:56;5.57;;;3.58;;
21235;SDS011;10775;42.678;26.324;2022-11-14T01:58:25;5.82;;;3.58;;
21235;SDS011;10775;42.678;26.324;2022-11-14T02:00:53;5.57;;;3.65;;
21235;SDS011;10775;42.678;26.324;2022-11-14T02:03:19;6.00;;;3.65;;
21235;SDS011;10775;42.678;26.324;2022-11-14T02:05:45;6.18;;;3.90;;
21235;SDS011;10775;42.678;26.324;2022-11-14T02:08:13;7.10;;;3.78;;
21235;SDS011;10775;42.678;26.324;2022-11-14T02:10:39;5.75;;;3.67;;
21235;SDS011;10775;42.678;26.324;2022-11-14T02:13:05;6.10;;;3.72;;
21235;SDS011;10775;42.678;26.324;2022-11-14T02:15:31;6.22;;;3.70;;
21235;SDS011;10775;42.678;26.324;2022-11-14T02:17:57;5.35;;;3.58;;
21235;SDS011;10775;42.678;26.324;2022-11-14T02:20:24;6.13;;;3.72;;
21235;SDS011;10775;42.678;26.324;2022-11-14T02:22:57;6.00;;;3.65;;
21235;SDS011;10775;42.678;26.324;2022-11-14T02:25:22;6.50;;;3.65;;
21235;SDS011;10775;42.678;26.324;2022-11-14T02:27:48;6.47;;;3.55;;
21235;SDS011;10775;42.678;26.324;2022-11-14T02:30:17;6.85;;;4.38;;
21235;SDS011;10775;42.678;26.324;2022-11-14T02:32:44;8.07;;;3.80;;
21235;SDS011;10775;42.678;26.324;2022-11-14T02:35:10;5.53;;;3.78;;
21235;SDS011;10775;42.678;26.324;2022-11-14T02:37:35;6.07;;;3.83;;
21235;SDS011;10775;42.678;26.324;2022-11-14T02:40:01;5.63;;;3.45;;
21235;SDS011;10775;42.678;26.324;2022-11-14T02:42:27;6.22;;;3.78;;
21235;SDS011;10775;42.678;26.324;2022-11-14T02:44:53;5.55;;;3.50;;
21235;SDS011;10775;42.678;26.324;2022-11-14T02:47:19;5.53;;;3.35;;
21235;SDS011;10775;42.678;26.324;2022-11-14T02:49:44;5.32;;;3.78;;
21235;SDS011;10775;42.678;26.324;2022-11-14T02:52:10;5.47;;;3.70;;
21235;SDS011;10775;42.678;26.324;2022-11-14T02:54:35;5.72;;;3.42;;
21235;SDS011;10775;42.678;26.324;2022-11-14T02:57:01;7.20;;;3.65;;
21235;SDS011;10775;42.678;26.324;2022-11-14T02:59:26;5.97;;;3.85;;
21235;SDS011;10775;42.678;26.324;2022-11-14T03:01:52;6.43;;;3.38;;
21235;SDS011;10775;42.678;26.324;2022-11-14T03:04:17;4.40;;;3.13;;
21235;SDS011;10775;42.678;26.324;2022-11-14T03:06:43;6.95;;;3.80;;
21235;SDS011;10775;42.678;26.324;2022-11-14T03:09:08;5.35;;;3.42;;
21235;SDS011;10775;42.678;26.324;2022-11-14T03:11:34;6.50;;;3.63;;
21235;SDS011;10775;42.678;26.324;2022-11-14T03:13:59;6.03;;;3.67;;
21235;SDS011;10775;42.678;26.324;2022-11-14T03:16:25;5.60;;;3.35;;
21235;SDS011;10775;42.678;26.324;2022-11-14T03:18:50;6.53;;;3.50;;
21235;SDS011;10775;42.678;26.324;2022-11-14T03:21:17;5.18;;;3.55;;
21235;SDS011;10775;42.678;26.324;2022-11-14T03:23:44;5.22;;;3.15;;
21235;SDS011;10775;42.678;26.324;2022-11-14T03:26:10;5.05;;;3.33;;
21235;SDS011;10775;42.678;26.324;2022-11-14T03:28:37;5.78;;;3.85;;
21235;SDS011;10775;42.678;26.324;2022-11-14T03:31:03;5.45;;;3.38;;
21235;SDS011;10775;42.678;26.324;2022-11-14T03:33:29;6.72;;;3.42;;
21235;SDS011;10775;42.678;26.324;2022-11-14T03:35:56;4.82;;;3.22;;
21235;SDS011;10775;42.678;26.324;2022-11-14T03:38:21;5.15;;;3.50;;
21235;SDS011;10775;42.678;26.324;2022-11-14T03:40:47;5.78;;;3.60;;
21235;SDS011;10775;42.678;26.324;2022-11-14T03:43:16;6.40;;;3.50;;
21235;SDS011;10775;42.678;26.324;2022-11-14T03:45:43;5.60;;;3.60;;
21235;SDS011;10775;42.678;26.324;2022-11-14T03:48:09;6.82;;;3.67;;
21235;SDS011;10775;42.678;26.324;2022-11-14T03:50:34;6.57;;;3.78;;
21235;SDS011;10775;42.678;26.324;2022-11-14T03:53:00;6.25;;;3.83;;
21235;SDS011;10775;42.678;26.324;2022-11-14T03:55:26;6.57;;;3.65;;
21235;SDS011;10775;42.678;26.324;2022-11-14T03:57:51;7.70;;;3.25;;
21235;SDS011;10775;42.678;26.324;2022-11-14T04:00:17;5.53;;;3.40;;
21235;SDS011;10775;42.678;26.324;2022-11-14T04:02:43;6.10;;;3.70;;
21235;SDS011;10775;42.678;26.324;2022-11-14T04:05:09;5.28;;;3.30;;
21235;SDS011;10775;42.678;26.324;2022-11-14T04:07:34;4.45;;;3.05;;
21235;SDS011;10775;42.678;26.324;2022-11-14T04:10:00;4.47;;;3.03;;
21235;SDS011;10775;42.678;26.324;2022-11-14T04:12:25;5.93;;;3.15;;
21235;SDS011;10775;42.678;26.324;2022-11-14T04:14:51;5.53;;;3.42;;
21235;SDS011;10775;42.678;26.324;2022-11-14T04:17:17;5.68;;;3.42;;
21235;SDS011;10775;42.678;26.324;2022-11-14T04:19:43;4.30;;;3.28;;
21235;SDS011;10775;42.678;26.324;2022-11-14T04:22:09;5.47;;;3.20;;
21235;SDS011;10775;42.678;26.324;2022-11-14T04:24:34;6.03;;;3.42;;
21235;SDS011;10775;42.678;26.324;2022-11-14T04:27:00;5.75;;;3.35;;
21235;SDS011;10775;42.678;26.324;2022-11-14T04:29:25;5.97;;;3.80;;
21235;SDS011;10775;42.678;26.324;2022-11-14T04:31:51;4.00;;;2.92;;
21235;SDS011;10775;42.678;26.324;2022-11-14T04:34:16;5.35;;;3.25;;
21235;SDS011;10775;42.678;26.324;2022-11-14T04:36:42;5.47;;;3.47;;
21235;SDS011;10775;42.678;26.324;2022-11-14T04:39:08;4.97;;;3.35;;
21235;SDS011;10775;42.678;26.324;2022-11-14T04:41:33;5.60;;;3.28;;
21235;SDS011;10775;42.678;26.324;2022-11-14T04:43:59;5.00;;;3.17;;
21235;SDS011;10775;42.678;26.324;2022-11-14T04:46:24;6.55;;;3.25;;
21235;SDS011;10775;42.678;26.324;2022-11-14T04:48:50;6.05;;;3.30;;
21235;SDS011;10775;42.678;26.324;2022-11-14T04:51:16;5.97;;;3.33;;
21235;SDS011;10775;42.678;26.324;2022-11-14T04:53:41;6.57;;;3.78;;
21235;SDS011;10775;42.678;26.324;2022-11-14T04:56:07;5.40;;;3.22;;
21235;SDS011;10775;42.678;26.324;2022-11-14T04:58:32;6.50;;;4.10;;
21235;SDS011;10775;42.678;26.324;2022-11-14T05:00:58;5.57;;;3.63;;
21235;SDS011;10775;42.678;26.324;2022-11-14T05:03:24;5.00;;;3.13;;
21235;SDS011;10775;42.678;26.324;2022-11-14T05:05:49;6.38;;;3.45;;
21235;SDS011;10775;42.678;26.324;2022-11-14T05:08:15;6.38;;;3.42;;
21235;SDS011;10775;42.678;26.324;2022-11-14T05:10:47;6.55;;;3.58;;
21235;SDS011;10775;42.678;26.324;2022-11-14T05:13:12;6.72;;;3.78;;
21235;SDS011;10775;42.678;26.324;2022-11-14T05:15:38;5.95;;;3.28;;
21235;SDS011;10775;42.678;26.324;2022-11-14T05:18:03;6.57;;;4.00;;
21235;SDS011;10775;42.678;26.324;2022-11-14T05:20:29;6.93;;;3.90;;
21235;SDS011;10775;42.678;26.324;2022-11-14T05:22:54;7.00;;;3.88;;
21235;SDS011;10775;42.678;26.324;2022-11-14T05:25:20;7.82;;;4.35;;
21235;SDS011;10775;42.678;26.324;2022-11-14T05:27:47;8.82;;;4.55;;
21235;SDS011;10775;42.678;26.324;2022-11-14T05:30:13;7.97;;;4.53;;
21235;SDS011;10775;42.678;26.324;2022-11-14T05:32:39;8.48;;;4.57;;
21235;SDS011;10775;42.678;26.324;2022-11-14T05:35:04;10.73;;;5.65;;
21235;SDS011;10775;42.678;26.324;2022-11-14T05:37:30;7.30;;;4.82;;
21235;SDS011;10775;42.678;26.324;2022-11-14T05:39:56;6.85;;;4.13;;
21235;SDS011;10775;42.678;26.324;2022-11-14T05:42:21;7.20;;;3.97;;
21235;SDS011;10775;42.678;26.324;2022-11-14T05:44:47;5.75;;;4.03;;
21235;SDS011;10775;42.678;26.324;2022-11-14T05:47:13;7.63;;;4.05;;
21235;SDS011;10775;42.678;26.324;2022-11-14T05:49:38;6.05;;;3.75;;
21235;SDS011;10775;42.678;26.324;2022-11-14T05:52:04;6.22;;;3.45;;
21235;SDS011;10775;42.678;26.324;2022-11-14T05:54:29;8.38;;;4.60;;
21235;SDS011;10775;42.678;26.324;2022-11-14T05:56:55;7.35;;;4.45;;
21235;SDS011;10775;42.678;26.324;2022-11-14T05:59:20;7.85;;;4.22;;
21235;SDS011;10775;42.678;26.324;2022-11-14T06:01:46;8.63;;;4.40;;
21235;SDS011;10775;42.678;26.324;2022-11-14T06:04:12;4.55;;;3.28;;
21235;SDS011;10775;42.678;26.324;2022-11-14T06:06:39;8.00;;;3.90;;
21235;SDS011;10775;42.678;26.324;2022-11-14T06:09:05;7.80;;;4.13;;
21235;SDS011;10775;42.678;26.324;2022-11-14T06:11:31;6.80;;;4.53;;
21235;SDS011;10775;42.678;26.324;2022-11-14T06:13:56;7.82;;;4.72;;
21235;SDS011;10775;42.678;26.324;2022-11-14T06:16:22;8.05;;;4.63;;
21235;SDS011;10775;42.678;26.324;2022-11-14T06:18:48;6.78;;;4.00;;
21235;SDS011;10775;42.678;26.324;2022-11-14T06:21:18;7.57;;;4.35;;
21235;SDS011;10775;42.678;26.324;2022-11-14T06:23:45;10.65;;;4.72;;
21235;SDS011;10775;42.678;26.324;2022-11-14T06:26:22;6.97;;;4.07;;
21235;SDS011;10775;42.678;26.324;2022-11-14T06:28:49;7.78;;;3.97;;
21235;SDS011;10775;42.678;26.324;2022-11-14T06:31:16;8.10;;;3.78;;
21235;SDS011;10775;42.678;26.324;2022-11-14T06:33:43;7.38;;;3.83;;
21235;SDS011;10775;42.678;26.324;2022-11-14T06:36:09;7.18;;;4.03;;
21235;SDS011;10775;42.678;26.324;2022-11-14T06:38:36;6.85;;;3.97;;
21235;SDS011;10775;42.678;26.324;2022-11-14T06:43:43;9.75;;;4.30;;
21235;SDS011;10775;42.678;26.324;2022-11-14T06:46:11;8.27;;;4.22;;
21235;SDS011;10775;42.678;26.324;2022-11-14T06:48:39;13.10;;;5.25;;
21235;SDS011;10775;42.678;26.324;2022-11-14T06:51:05;7.78;;;4.95;;
21235;SDS011;10775;42.678;26.324;2022-11-14T06:53:31;10.95;;;5.28;;
21235;SDS011;10775;42.678;26.324;2022-11-14T06:55:59;7.50;;;4.80;;
21235;SDS011;10775;42.678;26.324;2022-11-14T06:58:26;12.93;;;5.00;;
21235;SDS011;10775;42.678;26.324;2022-11-14T07:00:53;7.82;;;4.68;;
21235;SDS011;10775;42.678;26.324;2022-11-14T07:03:19;9.70;;;4.47;;
21235;SDS011;10775;42.678;26.324;2022-11-14T07:05:44;8.13;;;4.95;;
21235;SDS011;10775;42.678;26.324;2022-11-14T07:08:10;7.15;;;4.63;;
21235;SDS011;10775;42.678;26.324;2022-11-14T07:10:36;8.02;;;4.38;;
21235;SDS011;10775;42.678;26.324;2022-11-14T07:13:01;9.23;;;5.45;;
21235;SDS011;10775;42.678;26.324;2022-11-14T07:15:27;9.05;;;5.10;;
21235;SDS011;10775;42.678;26.324;2022-11-14T07:17:53;7.60;;;5.00;;
21235;SDS011;10775;42.678;26.324;2022-11-14T07:20:22;7.85;;;4.90;;
21235;SDS011;10775;42.678;26.324;2022-11-14T07:22:47;8.60;;;5.07;;
21235;SDS011;10775;42.678;26.324;2022-11-14T07:25:13;10.43;;;4.88;;
21235;SDS011;10775;42.678;26.324;2022-11-14T07:27:39;8.07;;;5.13;;
21235;SDS011;10775;42.678;26.324;2022-11-14T07:30:04;8.10;;;5.25;;
21235;SDS011;10775;42.678;26.324;2022-11-14T07:32:30;8.27;;;4.97;;
21235;SDS011;10775;42.678;26.324;2022-11-14T07:34:56;7.95;;;5.40;;
21235;SDS011;10775;42.678;26.324;2022-11-14T07:37:22;7.95;;;4.85;;
21235;SDS011;10775;42.678;26.324;2022-11-14T07:39:48;7.40;;;4.47;;
21235;SDS011;10775;42.678;26.324;2022-11-14T07:42:14;7.00;;;5.00;;
21235;SDS011;10775;42.678;26.324;2022-11-14T07:44:39;11.05;;;6.07;;
21235;SDS011;10775;42.678;26.324;2022-11-14T07:47:07;12.73;;;6.78;;
21235;SDS011;10775;42.678;26.324;2022-11-14T07:49:33;12.52;;;8.05;;
21235;SDS011;10775;42.678;26.324;2022-11-14T07:51:59;7.50;;;4.78;;
21235;SDS011;10775;42.678;26.324;2022-11-14T07:54:25;8.57;;;5.07;;
21235;SDS011;10775;42.678;26.324;2022-11-14T07:56:51;7.35;;;5.30;;
21235;SDS011;10775;42.678;26.324;2022-11-14T07:59:16;10.13;;;5.43;;
21235;SDS011;10775;42.678;26.324;2022-11-14T08:01:42;7.32;;;4.88;;
21235;SDS011;10775;42.678;26.324;2022-11-14T08:04:07;10.07;;;4.97;;
21235;SDS011;10775;42.678;26.324;2022-11-14T08:06:33;9.20;;;4.93;;
21235;SDS011;10775;42.678;26.324;2022-11-14T08:08:59;8.82;;;5.13;;
21235;SDS011;10775;42.678;26.324;2022-11-14T08:11:24;9.05;;;5.97;;
21235;SDS011;10775;42.678;26.324;2022-11-14T08:14:09;8.82;;;5.47;;
21235;SDS011;10775;42.678;26.324;2022-11-14T08:16:34;15.13;;;6.57;;
21235;SDS011;10775;42.678;26.324;2022-11-14T08:19:00;9.07;;;5.32;;
21235;SDS011;10775;42.678;26.324;2022-11-14T08:21:27;13.93;;;8.82;;
21235;SDS011;10775;42.678;26.324;2022-11-14T08:23:53;10.30;;;5.50;;
21235;SDS011;10775;42.678;26.324;2022-11-14T08:26:18;13.18;;;6.10;;
21235;SDS011;10775;42.678;26.324;2022-11-14T08:28:44;12.95;;;7.15;;
21235;SDS011;10775;42.678;26.324;2022-11-14T08:31:10;11.18;;;7.68;;
21235;SDS011;10775;42.678;26.324;2022-11-14T08:33:37;10.60;;;6.00;;
21235;SDS011;10775;42.678;26.324;2022-11-14T08:36:03;12.07;;;7.78;;
21235;SDS011;10775;42.678;26.324;2022-11-14T08:38:30;13.10;;;7.07;;
21235;SDS011;10775;42.678;26.324;2022-11-14T08:40:58;11.20;;;7.47;;
21235;SDS011;10775;42.678;26.324;2022-11-14T08:43:27;15.65;;;8.75;;
21235;SDS011;10775;42.678;26.324;2022-11-14T08:46:00;21.85;;;10.32;;
21235;SDS011;10775;42.678;26.324;2022-11-14T08:48:27;15.90;;;6.60;;
21235;SDS011;10775;42.678;26.324;2022-11-14T08:50:53;10.55;;;6.63;;
21235;SDS011;10775;42.678;26.324;2022-11-14T08:53:19;10.30;;;6.45;;
21235;SDS011;10775;42.678;26.324;2022-11-14T08:55:45;18.00;;;10.15;;
21235;SDS011;10775;42.678;26.324;2022-11-14T08:58:11;19.65;;;9.98;;
21235;SDS011;10775;42.678;26.324;2022-11-14T09:00:36;14.18;;;8.43;;
21235;SDS011;10775;42.678;26.324;2022-11-14T09:03:08;19.85;;;10.40;;
21235;SDS011;10775;42.678;26.324;2022-11-14T09:05:35;17.08;;;8.40;;
21235;SDS011;10775;42.678;26.324;2022-11-14T09:08:09;15.73;;;7.20;;
21235;SDS011;10775;42.678;26.324;2022-11-14T09:10:34;135.00;;;42.90;;
21235;SDS011;10775;42.678;26.324;2022-11-14T09:13:02;17.75;;;8.32;;
21235;SDS011;10775;42.678;26.324;2022-11-14T09:15:27;16.17;;;9.32;;
21235;SDS011;10775;42.678;26.324;2022-11-14T09:17:54;13.70;;;7.38;;
21235;SDS011;10775;42.678;26.324;2022-11-14T09:20:21;88.55;;;31.13;;
21235;SDS011;10775;42.678;26.324;2022-11-14T09:22:48;14.43;;;8.95;;
21235;SDS011;10775;42.678;26.324;2022-11-14T09:25:16;16.88;;;8.02;;
21235;SDS011;10775;42.678;26.324;2022-11-14T09:27:42;12.70;;;7.80;;
21235;SDS011;10775;42.678;26.324;2022-11-14T09:30:08;14.43;;;7.07;;
21235;SDS011;10775;42.678;26.324;2022-11-14T09:32:34;14.55;;;7.55;;
21235;SDS011;10775;42.678;26.324;2022-11-14T09:35:00;14.27;;;7.90;;
21235;SDS011;10775;42.678;26.324;2022-11-14T09:37:26;14.68;;;7.95;;
21235;SDS011;10775;42.678;26.324;2022-11-14T09:39:51;12.38;;;7.93;;
21235;SDS011;10775;42.678;26.324;2022-11-14T09:45:02;15.15;;;8.55;;
21235;SDS011;10775;42.678;26.324;2022-11-14T09:47:32;20.20;;;10.48;;
21235;SDS011;10775;42.678;26.324;2022-11-14T09:50:14;16.40;;;8.15;;
21235;SDS011;10775;42.678;26.324;2022-11-14T09:52:56;12.75;;;8.02;;
21235;SDS011;10775;42.678;26.324;2022-11-14T09:55:30;10.35;;;6.55;;
21235;SDS011;10775;42.678;26.324;2022-11-14T09:57:57;12.13;;;7.20;;
21235;SDS011;10775;42.678;26.324;2022-11-14T10:00:26;12.80;;;7.90;;
21235;SDS011;10775;42.678;26.324;2022-11-14T10:11:46;12.77;;;7.50;;
21235;SDS011;10775;42.678;26.324;2022-11-14T10:20:47;12.80;;;6.13;;
21235;SDS011;10775;42.678;26.324;2022-11-14T10:23:30;15.90;;;7.30;;
21235;SDS011;10775;42.678;26.324;2022-11-14T10:36:37;12.93;;;6.97;;
21235;SDS011;10775;42.678;26.324;2022-11-14T10:41:51;12.38;;;7.40;;
21235;SDS011;10775;42.678;26.324;2022-11-14T10:44:21;12.02;;;7.00;;
21235;SDS011;10775;42.678;26.324;2022-11-14T10:46:54;11.00;;;6.00;;
21235;SDS011;10775;42.678;26.324;2022-11-14T10:49:25;11.73;;;6.57;;
21235;SDS011;10775;42.678;26.324;2022-11-14T10:54:30;10.00;;;5.97;;
21235;SDS011;10775;42.678;26.324;2022-11-14T10:57:16;8.60;;;5.53;;
21235;SDS011;10775;42.678;26.324;2022-11-14T10:59:43;13.45;;;7.40;;
21235;SDS011;10775;42.678;26.324;2022-11-14T11:02:09;17.73;;;8.98;;
21235;SDS011;10775;42.678;26.324;2022-11-14T11:04:39;11.52;;;7.07;;
21235;SDS011;10775;42.678;26.324;2022-11-14T11:09:32;13.48;;;7.50;;
21235;SDS011;10775;42.678;26.324;2022-11-14T11:12:21;14.07;;;8.98;;
21235;SDS011;10775;42.678;26.324;2022-11-14T11:15:07;15.68;;;6.85;;
21235;SDS011;10775;42.678;26.324;2022-11-14T11:25:34;12.68;;;7.45;;
21235;SDS011;10775;42.678;26.324;2022-11-14T11:28:05;15.65;;;8.43;;
21235;SDS011;10775;42.678;26.324;2022-11-14T11:30:37;17.50;;;8.05;;
21235;SDS011;10775;42.678;26.324;2022-11-14T11:33:21;14.63;;;7.47;;
21235;SDS011;10775;42.678;26.324;2022-11-14T11:35:49;13.82;;;7.32;;
21235;SDS011;10775;42.678;26.324;2022-11-14T11:38:17;13.80;;;7.82;;
21235;SDS011;10775;42.678;26.324;2022-11-14T11:40:44;16.67;;;8.57;;
21235;SDS011;10775;42.678;26.324;2022-11-14T11:43:24;19.23;;;9.10;;
21235;SDS011;10775;42.678;26.324;2022-11-14T11:45:50;12.82;;;6.40;;
21235;SDS011;10775;42.678;26.324;2022-11-14T11:48:21;13.25;;;7.53;;
21235;SDS011;10775;42.678;26.324;2022-11-14T11:50:48;14.77;;;6.97;;
21235;SDS011;10775;42.678;26.324;2022-11-14T11:53:25;16.27;;;7.30;;
21235;SDS011;10775;42.678;26.324;2022-11-14T11:55:59;11.43;;;6.28;;
21235;SDS011;10775;42.678;26.324;2022-11-14T12:01:15;13.57;;;6.80;;
21235;SDS011;10775;42.678;26.324;2022-11-14T12:03:49;10.57;;;5.75;;
21235;SDS011;10775;42.678;26.324;2022-11-14T12:11:36;30.05;;;13.23;;
21235;SDS011;10775;42.678;26.324;2022-11-14T12:30:55;45.88;;;17.15;;
21235;SDS011;10775;42.678;26.324;2022-11-14T12:33:35;44.67;;;18.42;;
21235;SDS011;10775;42.678;26.324;2022-11-14T12:36:05;42.27;;;17.53;;
21235;SDS011;10775;42.678;26.324;2022-11-14T12:38:43;47.03;;;16.63;;
21235;SDS011;10775;42.678;26.324;2022-11-14T12:41:17;45.90;;;15.95;;
21235;SDS011;10775;42.678;26.324;2022-11-14T12:43:48;23.13;;;12.07;;
21235;SDS011;10775;42.678;26.324;2022-11-14T12:46:14;33.92;;;15.55;;
21235;SDS011;10775;42.678;26.324;2022-11-14T12:48:46;33.50;;;14.75;;
21235;SDS011;10775;42.678;26.324;2022-11-14T12:53:50;39.20;;;16.83;;
21235;SDS011;10775;42.678;26.324;2022-11-14T13:07:49;37.58;;;14.48;;
21235;SDS011;10775;42.678;26.324;2022-11-14T13:10:28;32.78;;;14.32;;
21235;SDS011;10775;42.678;26.324;2022-11-14T13:13:05;34.20;;;13.90;;
21235;SDS011;10775;42.678;26.324;2022-11-14T13:15:55;29.30;;;12.77;;
21235;SDS011;10775;42.678;26.324;2022-11-14T13:27:27;29.83;;;12.57;;
21235;SDS011;10775;42.678;26.324;2022-11-14T13:29:57;26.55;;;12.45;;
21235;SDS011;10775;42.678;26.324;2022-11-14T13:35:04;24.30;;;11.55;;
21235;SDS011;10775;42.678;26.324;2022-11-14T13:52:11;22.08;;;10.55;;
21235;SDS011;10775;42.678;26.324;2022-11-14T13:54:43;20.48;;;9.93;;
21235;SDS011;10775;42.678;26.324;2022-11-14T14:00:00;16.08;;;8.55;;
21235;SDS011;10775;42.678;26.324;2022-11-14T14:13:18;28.50;;;14.68;;
21235;SDS011;10775;42.678;26.324;2022-11-14T14:16:03;23.92;;;12.50;;
21235;SDS011;10775;42.678;26.324;2022-11-14T14:18:43;21.23;;;11.68;;
21235;SDS011;10775;42.678;26.324;2022-11-14T14:27:13;15.88;;;9.20;;
21235;SDS011;10775;42.678;26.324;2022-11-14T14:30:01;15.73;;;9.55;;
21235;SDS011;10775;42.678;26.324;2022-11-14T14:32:34;15.27;;;9.82;;
21235;SDS011;10775;42.678;26.324;2022-11-14T14:35:18;14.73;;;9.50;;
21235;SDS011;10775;42.678;26.324;2022-11-14T14:37:54;15.48;;;9.10;;
21235;SDS011;10775;42.678;26.324;2022-11-14T14:40:22;15.45;;;8.63;;
21235;SDS011;10775;42.678;26.324;2022-11-14T14:42:53;15.98;;;9.93;;
21235;SDS011;10775;42.678;26.324;2022-11-14T14:45:21;18.33;;;10.65;;
21235;SDS011;10775;42.678;26.324;2022-11-14T14:47:48;20.20;;;12.05;;
21235;SDS011;10775;42.678;26.324;2022-11-14T14:50:23;19.42;;;11.57;;
21235;SDS011;10775;42.678;26.324;2022-11-14T14:52:59;14.87;;;10.07;;
21235;SDS011;10775;42.678;26.324;2022-11-14T14:55:27;17.45;;;8.75;;
21235;SDS011;10775;42.678;26.324;2022-11-14T14:57:54;16.88;;;10.70;;
21235;SDS011;10775;42.678;26.324;2022-11-14T15:00:21;25.55;;;16.67;;
21235;SDS011;10775;42.678;26.324;2022-11-14T15:02:51;23.52;;;14.80;;
21235;SDS011;10775;42.678;26.324;2022-11-14T15:05:22;59.63;;;35.67;;
21235;SDS011;10775;42.678;26.324;2022-11-14T15:07:54;19.95;;;10.52;;
21235;SDS011;10775;42.678;26.324;2022-11-14T15:10:22;17.90;;;10.77;;
21235;SDS011;10775;42.678;26.324;2022-11-14T15:12:56;17.58;;;10.52;;
21235;SDS011;10775;42.678;26.324;2022-11-14T15:15:23;15.63;;;10.50;;
21235;SDS011;10775;42.678;26.324;2022-11-14T15:17:49;15.77;;;9.68;;
21235;SDS011;10775;42.678;26.324;2022-11-14T15:20:22;16.25;;;10.00;;
21235;SDS011;10775;42.678;26.324;2022-11-14T15:23:15;17.33;;;10.10;;
21235;SDS011;10775;42.678;26.324;2022-11-14T15:25:44;17.85;;;11.07;;
21235;SDS011;10775;42.678;26.324;2022-11-14T15:28:18;19.45;;;11.45;;
21235;SDS011;10775;42.678;26.324;2022-11-14T15:30:58;20.10;;;11.32;;
21235;SDS011;10775;42.678;26.324;2022-11-14T15:36:03;16.23;;;8.48;;
21235;SDS011;10775;42.678;26.324;2022-11-14T15:38:34;16.30;;;9.98;;
21235;SDS011;10775;42.678;26.324;2022-11-14T15:41:19;14.32;;;8.48;;
21235;SDS011;10775;42.678;26.324;2022-11-14T15:43:47;16.08;;;9.15;;
21235;SDS011;10775;42.678;26.324;2022-11-14T15:48:58;13.55;;;8.27;;
21235;SDS011;10775;42.678;26.324;2022-11-14T15:51:41;21.65;;;10.23;;
21235;SDS011;10775;42.678;26.324;2022-11-14T15:54:34;15.27;;;8.80;;
21235;SDS011;10775;42.678;26.324;2022-11-14T15:57:19;14.88;;;8.23;;
21235;SDS011;10775;42.678;26.324;2022-11-14T15:59:45;13.73;;;8.35;;
21235;SDS011;10775;42.678;26.324;2022-11-14T16:02:18;18.23;;;10.82;;
21235;SDS011;10775;42.678;26.324;2022-11-14T16:04:46;14.57;;;8.75;;
21235;SDS011;10775;42.678;26.324;2022-11-14T16:07:14;12.75;;;8.32;;
21235;SDS011;10775;42.678;26.324;2022-11-14T16:09:41;16.35;;;9.50;;
21235;SDS011;10775;42.678;26.324;2022-11-14T16:12:07;17.48;;;10.70;;
21235;SDS011;10775;42.678;26.324;2022-11-14T16:14:33;17.80;;;10.50;;
21235;SDS011;10775;42.678;26.324;2022-11-14T16:16:59;20.08;;;11.88;;
21235;SDS011;10775;42.678;26.324;2022-11-14T16:19:24;17.80;;;10.70;;
21235;SDS011;10775;42.678;26.324;2022-11-14T16:21:50;18.80;;;11.07;;
21235;SDS011;10775;42.678;26.324;2022-11-14T16:24:20;17.58;;;11.13;;
21235;SDS011;10775;42.678;26.324;2022-11-14T16:26:47;24.20;;;14.45;;
21235;SDS011;10775;42.678;26.324;2022-11-14T16:29:14;20.35;;;12.02;;
21235;SDS011;10775;42.678;26.324;2022-11-14T16:31:40;16.55;;;9.68;;
21235;SDS011;10775;42.678;26.324;2022-11-14T16:34:06;15.75;;;9.88;;
21235;SDS011;10775;42.678;26.324;2022-11-14T16:36:32;19.27;;;12.25;;
21235;SDS011;10775;42.678;26.324;2022-11-14T16:38:59;19.05;;;11.63;;
21235;SDS011;10775;42.678;26.324;2022-11-14T16:41:26;18.85;;;11.90;;
21235;SDS011;10775;42.678;26.324;2022-11-14T16:43:52;18.17;;;12.40;;
21235;SDS011;10775;42.678;26.324;2022-11-14T16:46:19;17.08;;;10.80;;
21235;SDS011;10775;42.678;26.324;2022-11-14T16:48:45;15.60;;;9.77;;
21235;SDS011;10775;42.678;26.324;2022-11-14T16:51:11;14.25;;;9.38;;